Date,TemperatureHighF,TemperatureAvgF,TemperatureLowF,DewpointHighF,DewpointAvgF,DewpointLowF,HumidityHigh,HumidityAvg,HumidityLow,PressureMaxIn,PressureMinIn,WindSpeedMaxMPH,WindSpeedAvgMPH,GustSpeedMaxMPH,PrecipitationSumIn
2013-1-1,41,38,30,41,37,27,98,95,90,30.22,30.01,6,1,11,0.14
2013-1-2,34,29,24,27,23,21,91,80,60,30.30,30.20,6,1,8,0.00
2013-1-3,45,31,19,30,26,18,97,81,51,30.44,30.27,5,0,6,0.00
2013-1-4,49,33,22,34,27,21,98,80,47,30.52,30.40,4,0,6,0.00
2013-1-5,46,37,25,37,30,24,96,80,59,30.42,30.27,5,1,8,0.00
2013-1-6,52,39,25,40,34,24,99,83,52,30.39,30.23,7,1,10,0.00
2013-1-7,53,33,20,31,26,19,97,78,39,30.46,30.22,4,0,7,0.00
2013-1-8,59,42,26,40,34,24,95,74,47,30.29,30.17,5,1,8,0.00
2013-1-9,55,52,46,55,51,41,99,96,79,30.36,30.21,7,1,7,0.96
2013-1-10,68,61,54,65,60,54,100,96,86,30.28,29.89,11,3,19,0.64
2013-1-11,68,61,54,62,54,50,97,79,53,30.03,29.92,9,2,12,0.02
2013-1-12,72,68,64,68,66,62,99,92,83,29.94,29.72,9,4,15,0.16
2013-1-13,71,42,30,65,40,27,97,93,82,30.29,29.71,10,3,19,2.81
2013-1-14,30,28,26,27,24,22,89,85,80,30.43,30.28,10,3,15,0.00
2013-1-15,31,29,25,30,27,23,96,92,87,30.30,30.08,8,2,9,0.00
2013-1-16,32,31,29,31,29,28,96,94,91,30.21,30.07,2,0,5,0.00
2013-1-17,47,37,29,38,32,26,96,83,67,30.48,30.13,8,2,14,0.08
2013-1-18,55,37,22,34,27,21,99,71,33,30.59,30.35,3,0,7,0.00
2013-1-19,59,46,33,37,33,28,84,61,35,30.35,30.16,8,3,13,0.00
2013-1-20,58,44,30,38,32,28,98,67,34,30.28,30.16,5,1,8,0.00
2013-1-21,42,33,23,28,21,18,88,64,40,30.37,30.18,7,2,12,0.00
2013-1-22,38,29,20,21,18,14,94,65,40,30.46,30.33,5,1,7,0.00
2013-1-23,57,39,23,38,29,17,88,70,48,30.37,30.18,5,1,7,0.00
2013-1-24,40,37,33,36,24,17,94,60,42,30.46,30.22,9,2,12,0.00
2013-1-25,47,38,30,43,33,22,97,82,50,30.26,30.03,5,1,10,0.07
2013-1-26,54,40,27,39,33,27,99,77,44,30.35,30.26,3,0,6,0.00
2013-1-27,65,54,44,54,45,35,82,70,60,30.27,30.11,10,2,14,0.00
2013-1-28,73,64,58,62,57,54,90,80,66,30.16,30.04,9,4,15,0.05
2013-1-29,76,68,61,65,61,58,97,79,59,30.05,29.40,22,5,32,0.63
2013-1-30,62,47,33,62,42,26,100,83,62,30.03,29.46,9,3,23,1.85
2013-1-31,55,40,28,34,28,24,88,66,39,30.33,30.03,10,2,16,0.00
2013-2-1,38,28,20,23,13,8,73,56,35,30.56,30.33,7,1,10,0.00
2013-2-2,51,37,24,35,28,16,93,70,50,30.32,30.14,5,1,9,0.00
2013-2-3,55,43,31,36,31,25,96,64,36,30.18,30.10,8,1,15,0.00
2013-2-4,58,46,34,45,35,28,93,68,39,30.11,29.91,5,2,12,0.04
2013-2-5,66,49,36,51,43,35,100,82,49,30.05,29.92,3,0,8,0.00
2013-2-6,61,49,35,43,40,35,99,75,49,30.22,30.05,5,1,9,0.00
2013-2-7,70,56,40,55,48,36,96,74,54,30.05,29.87,4,1,8,0.12
2013-2-8,56,43,31,56,39,30,98,86,72,30.32,29.89,10,3,14,0.20
2013-2-9,52,41,27,40,33,26,97,77,51,30.34,30.05,5,1,8,0.01
2013-2-10,60,55,50,58,49,38,96,80,56,30.04,29.74,10,4,21,0.64
2013-2-11,59,50,44,52,35,29,83,58,33,30.21,29.94,3,0,9,0.00
2013-2-12,52,45,34,42,38,33,97,77,55,30.16,29.80,5,1,8,0.02
2013-2-13,44,41,37,42,38,36,96,91,82,30.02,29.78,4,1,11,0.06
2013-2-14,64,48,35,41,37,33,97,70,32,30.07,29.99,9,2,12,0.01
2013-2-15,55,45,34,39,32,25,90,65,36,30.20,30.05,8,2,12,0.00
2013-2-16,40,33,26,24,21,15,82,63,39,30.28,30.20,7,1,13,0.00
2013-2-17,56,43,29,31,25,20,69,51,33,30.27,30.07,8,2,12,0.00
2013-2-18,60,51,44,52,43,30,95,74,53,30.09,29.75,13,4,25,0.96
2013-2-19,49,41,32,43,29,21,85,64,39,30.28,29.95,9,2,15,0.00
2013-2-20,35,32,28,26,20,17,83,63,50,30.38,30.21,4,1,9,0.00
2013-2-21,44,37,32,43,32,23,98,83,59,30.20,29.77,4,1,11,0.97
2013-2-22,50,42,36,42,38,32,98,89,69,30.10,29.88,4,1,8,0.00
2013-2-23,53,38,28,34,30,27,96,76,47,30.08,29.96,5,1,11,0.00
2013-2-24,59,42,26,34,30,25,99,67,37,30.13,29.92,5,1,8,0.00
2013-2-25,61,51,38,53,39,28,97,64,34,29.93,29.32,6,2,15,0.50
2013-2-26,54,45,40,53,40,34,96,83,74,29.81,29.32,10,4,17,0.04
2013-2-27,46,41,38,39,34,29,84,76,68,29.98,29.82,11,2,11,0.00
2013-2-28,42,38,33,32,30,28,82,72,63,30.11,29.98,6,1,12,0.00
2013-3-1,39,35,32,31,30,28,88,79,68,30.16,30.09,7,1,11,0.00
2013-3-2,36,32,28,30,27,21,93,81,63,30.25,30.14,5,2,11,0.02
2013-3-3,50,36,19,30,23,18,96,64,33,30.25,30.08,4,0,9,0.00
2013-3-4,69,54,35,49,33,25,72,47,27,30.08,29.75,12,3,20,0.00
2013-3-5,63,49,36,57,40,24,94,70,46,30.17,29.75,17,4,23,0.37
2013-3-6,45,37,30,30,26,23,90,66,53,30.38,30.18,10,2,15,0.00
2013-3-7,53,39,28,34,30,26,95,72,47,30.41,30.29,6,1,7,0.00
2013-3-8,65,47,31,35,30,25,90,57,24,30.40,30.18,6,1,10,0.00
2013-3-9,71,59,47,39,35,29,64,41,27,30.18,29.92,10,2,16,0.00
2013-3-10,66,59,52,58,50,40,98,75,43,29.95,29.73,12,4,21,0.95
2013-3-11,51,41,31,48,36,30,95,80,59,30.05,29.82,6,1,13,0.01
2013-3-12,58,41,26,38,30,22,99,69,31,30.22,30.03,5,1,9,0.00
2013-3-13,50,42,32,33,27,23,85,57,39,30.41,30.22,6,2,14,0.00
2013-3-14,64,45,26,36,29,25,96,61,28,30.44,30.17,6,2,11,0.00
2013-3-15,78,63,47,53,45,36,72,54,38,30.16,29.87,13,3,18,0.00
2013-3-16,78,68,57,57,53,47,80,60,46,29.90,29.80,11,3,18,0.00
2013-3-17,67,56,49,55,50,45,91,79,61,29.91,29.66,6,1,11,0.00
2013-3-18,68,53,41,60,50,40,98,89,69,30.04,29.65,6,2,13,0.49
2013-3-19,57,45,32,40,31,20,100,64,24,30.21,30.04,6,1,10,0.00
2013-3-20,54,45,31,37,27,12,92,53,29,30.24,30.08,10,2,16,0.00
2013-3-21,45,38,26,32,21,15,89,54,31,30.14,29.96,4,1,7,0.03
2013-3-22,46,41,33,45,40,32,98,95,83,30.01,29.89,3,0,6,0.22
2013-3-23,56,49,45,52,47,44,98,91,81,29.93,29.68,9,1,9,0.30
2013-3-24,50,45,36,50,41,27,99,85,66,29.95,29.52,12,3,23,0.05
2013-3-25,40,36,32,28,26,23,76,66,57,30.25,29.95,8,3,19,0.00
2013-3-26,48,38,29,32,27,24,88,66,43,30.37,30.24,10,1,12,0.00
2013-3-27,59,40,23,35,29,22,97,68,32,30.43,30.30,5,1,10,0.00
2013-3-28,70,52,31,41,34,30,96,59,27,30.36,30.21,4,0,9,0.00
2013-3-29,64,53,44,54,44,36,98,75,37,30.27,30.15,9,1,10,0.09
2013-3-30,57,53,48,57,52,48,100,98,95,30.18,29.93,3,0,6,0.29
2013-3-31,67,57,45,59,55,45,100,93,63,29.96,29.87,7,1,10,0.01
2013-4-1,66,53,39,50,44,39,100,74,46,30.13,29.93,7,1,9,0.00
2013-4-2,51,46,40,40,33,29,92,64,46,30.26,30.11,6,2,9,0.12
2013-4-3,52,46,40,36,29,25,83,52,40,30.24,30.12,7,2,12,0.00
2013-4-4,48,44,41,46,42,31,98,92,54,30.12,29.99,5,1,7,0.32
2013-4-5,69,53,42,47,42,36,100,71,34,30.18,30.05,6,1,8,0.01
2013-4-6,76,60,40,45,40,36,98,56,23,30.10,29.91,12,2,16,0.00
2013-4-7,72,64,53,56,52,43,90,68,51,30.03,29.90,6,2,12,0.00
2013-4-8,81,68,60,60,57,52,84,68,44,29.98,29.84,10,3,16,0.00
2013-4-9,83,74,63,67,64,57,87,73,56,29.98,29.86,11,3,15,0.00
2013-4-10,86,77,71,68,66,63,86,69,49,29.93,29.66,9,4,15,0.19
2013-4-11,71,52,42,67,51,41,99,96,85,29.80,29.67,8,1,12,2.46
2013-4-12,69,52,36,48,43,36,100,77,43,30.00,29.81,6,1,11,0.00
2013-4-13,75,58,41,48,43,38,98,62,31,30.11,29.91,3,1,6,0.00
2013-4-14,70,60,49,57,52,47,94,75,53,29.92,29.74,13,3,17,0.00
2013-4-15,84,69,55,64,60,54,95,74,48,29.92,29.81,11,3,12,0.00
2013-4-16,86,77,69,72,69,64,91,78,59,30.03,29.90,8,3,12,0.00
2013-4-17,88,78,69,71,69,66,96,76,53,30.05,29.83,12,3,13,0.00
2013-4-18,80,71,46,69,62,44,97,76,52,29.84,29.59,12,4,18,2.12
2013-4-19,56,47,39,44,36,32,95,69,44,30.14,29.83,7,2,13,0.00
2013-4-20,70,53,34,45,38,34,100,65,31,30.26,30.15,5,0,9,0.00
2013-4-21,70,57,42,44,40,36,87,56,28,30.35,30.18,6,1,10,0.00
2013-4-22,78,60,41,50,46,39,97,63,36,30.21,30.01,8,2,11,0.00
2013-4-23,75,65,54,62,58,50,90,78,60,30.05,29.89,10,3,15,0.00
2013-4-24,67,50,40,64,45,39,96,84,60,30.30,29.86,9,2,13,1.38
2013-4-25,72,52,34,46,40,33,100,70,30,30.40,30.28,3,0,7,0.00
2013-4-26,67,55,46,52,47,42,96,77,46,30.43,30.21,5,1,15,0.23
2013-4-27,72,60,52,68,59,51,99,94,86,30.23,29.84,6,1,11,1.09
2013-4-28,67,60,51,60,56,50,98,89,69,29.97,29.92,4,0,8,0.00
2013-4-29,81,63,45,61,54,45,100,76,44,30.01,29.87,5,1,7,0.00
2013-4-30,84,68,51,59,55,51,99,68,37,29.95,29.87,7,1,10,0.00
2013-5-1,83,69,58,66,61,56,94,77,53,30.04,29.93,7,1,10,0.00
2013-5-2,73,66,61,65,61,59,99,86,65,30.10,29.98,3,0,6,0.02
2013-5-3,63,50,38,63,48,37,99,96,91,29.99,29.87,4,1,8,1.93
2013-5-4,57,45,34,46,40,33,100,86,54,29.97,29.89,4,1,19,0.16
2013-5-5,62,52,46,51,47,45,99,85,58,29.93,29.86,4,1,12,0.29
2013-5-6,63,57,52,58,55,52,98,92,76,29.94,29.85,5,0,9,0.03
2013-5-7,76,63,50,61,56,50,100,81,55,30.01,29.93,4,0,7,0.00
2013-5-8,85,68,51,63,57,50,100,73,42,30.07,29.98,5,0,7,0.00
2013-5-9,83,70,56,64,61,56,99,74,48,30.06,29.93,8,2,14,0.00
2013-5-10,78,68,63,70,66,63,99,92,76,29.95,29.84,10,1,13,1.55
2013-5-11,74,66,59,65,58,52,99,78,47,30.07,29.92,6,1,10,0.01
2013-5-12,68,58,47,53,40,32,91,55,29,30.22,30.07,9,2,13,0.00
2013-5-13,77,61,41,53,47,41,99,66,34,30.27,30.12,4,1,8,0.00
2013-5-14,88,74,57,61,56,51,83,56,38,30.11,29.99,9,2,13,0.00
2013-5-15,87,77,66,59,55,48,67,49,30,30.09,29.93,9,2,14,0.00
2013-5-16,79,71,63,67,62,59,98,75,60,29.99,29.89,5,1,7,0.04
2013-5-17,82,71,66,72,67,63,98,88,66,29.93,29.86,4,1,8,0.23
2013-5-18,86,70,64,76,68,65,100,93,70,29.97,29.91,3,0,6,0.00